createdAt,value
2019-05-17T00:00:08.603Z,8.56
2019-05-17T00:02:37.599Z,8.49
2019-05-17T00:05:07.241Z,8.40
2019-05-17T00:07:36.846Z,8.54
2019-05-17T00:10:07.593Z,8.44
2019-05-17T00:12:36.798Z,8.47
2019-05-17T00:15:07.922Z,8.56
2019-05-17T00:17:37.744Z,8.45
2019-05-17T00:20:10.080Z,8.41
2019-05-17T00:22:38.558Z,8.48
2019-05-17T00:25:07.677Z,8.45
2019-05-17T00:27:37.239Z,8.41
2019-05-17T00:30:09.091Z,8.43
2019-05-17T00:32:37.624Z,8.49
2019-05-17T00:35:07.310Z,8.45
2019-05-17T00:37:37.369Z,8.40
2019-05-17T00:40:08.172Z,8.39
2019-05-17T00:42:37.321Z,8.34
2019-05-17T00:45:08.452Z,8.41
2019-05-17T00:47:37.534Z,8.40
2019-05-17T00:50:08.010Z,8.35
2019-05-17T00:52:37.011Z,8.48
2019-05-17T00:55:09.001Z,8.46
2019-05-17T00:57:37.530Z,8.46
2019-05-17T01:08:04.054Z,8.21
2019-05-17T01:10:32.964Z,8.33
2019-05-17T01:13:01.425Z,8.35
2019-05-17T01:15:29.958Z,8.30
2019-05-17T01:17:58.411Z,8.18
2019-05-17T01:20:27.715Z,8.12
2019-05-17T01:22:56.733Z,8.20
2019-05-17T01:25:27.269Z,8.28
2019-05-17T01:27:56.376Z,8.17
2019-05-17T01:30:26.648Z,8.19
2019-05-17T01:32:57.047Z,8.21
2019-05-17T01:35:26.593Z,8.10
2019-05-17T01:37:56.498Z,8.06
2019-05-17T01:40:26.422Z,8.17
2019-05-17T01:42:55.356Z,8.19
2019-05-17T01:45:23.911Z,8.19
2019-05-17T01:47:52.425Z,8.10
2019-05-17T01:50:21.384Z,7.97
2019-05-17T01:52:49.868Z,8.15
2019-05-17T01:55:18.385Z,8.14
2019-05-17T01:57:47.621Z,8.19
2019-05-17T02:00:17.686Z,8.09
2019-05-17T02:02:47.991Z,8.20
2019-05-17T02:05:19.115Z,7.97
2019-05-17T02:07:48.077Z,8.05
2019-05-17T02:10:18.378Z,8.05
2019-05-17T02:12:49.098Z,7.94
2019-05-17T02:15:18.541Z,8.04
2019-05-17T02:17:47.131Z,7.93
2019-05-17T02:20:17.215Z,7.94
2019-05-17T02:22:47.397Z,7.95
2019-05-17T02:25:18.199Z,7.72
2019-05-17T02:27:47.060Z,7.82
2019-05-17T02:30:16.531Z,7.91
2019-05-17T02:32:45.030Z,7.96
2019-05-17T02:35:14.846Z,7.84
2019-05-17T02:37:44.108Z,7.86
2019-05-17T02:40:14.895Z,7.87
2019-05-17T02:42:44.075Z,7.99
2019-05-17T02:45:13.821Z,7.90
2019-05-17T02:47:43.921Z,7.92
2019-05-17T02:50:14.652Z,7.92
2019-05-17T02:52:44.193Z,7.87
2019-05-17T02:55:14.637Z,7.86
2019-05-17T02:57:43.822Z,7.87
2019-05-17T03:00:13.658Z,7.75
2019-05-17T03:02:43.392Z,7.87
2019-05-17T03:05:13.267Z,7.69
2019-05-17T03:07:43.856Z,7.76
2019-05-17T03:10:22.782Z,7.70
2019-05-17T03:12:44.627Z,7.82
2019-05-17T03:15:14.815Z,7.83
2019-05-17T03:17:44.002Z,7.67
2019-05-17T03:20:13.544Z,7.56
2019-05-17T03:22:44.237Z,7.56
2019-05-17T03:25:13.793Z,7.55
2019-05-17T03:27:43.678Z,7.59
2019-05-17T03:30:18.214Z,7.58
2019-05-17T03:32:47.776Z,7.76
2019-05-17T03:35:17.410Z,7.58
2019-05-17T03:37:44.940Z,7.65
2019-05-17T03:40:35.127Z,7.74
2019-05-17T03:42:44.654Z,7.54
2019-05-17T03:45:14.350Z,7.71
2019-05-17T03:47:44.585Z,7.82
2019-05-17T03:50:14.580Z,7.75
2019-05-17T03:52:44.416Z,7.75
2019-05-17T03:55:14.130Z,7.82
2019-05-17T03:57:44.195Z,7.65
2019-05-17T04:00:14.093Z,7.74
2019-05-17T04:02:44.476Z,7.70
2019-05-17T04:05:13.550Z,7.71
2019-05-17T04:07:43.442Z,7.76
2019-05-17T04:10:15.220Z,7.83
2019-05-17T04:12:44.160Z,7.86
2019-05-17T04:15:13.825Z,7.98
2019-05-17T04:17:43.955Z,7.98
2019-05-17T04:20:14.438Z,7.98
2019-05-17T04:22:44.394Z,7.99
2019-05-17T04:25:14.372Z,7.88
2019-05-17T04:27:43.945Z,7.88
2019-05-17T04:30:13.543Z,7.98
2019-05-17T04:32:44.299Z,8.06
2019-05-17T04:35:13.496Z,7.98
2019-05-17T04:37:44.622Z,7.97
2019-05-17T04:40:14.115Z,8.10
2019-05-17T04:42:44.019Z,8.17
2019-05-17T04:45:13.293Z,8.20
2019-05-17T04:47:44.214Z,8.21
2019-05-17T04:50:13.538Z,8.27
2019-05-17T04:52:43.488Z,8.18
2019-05-17T04:55:13.722Z,8.36
2019-05-17T04:57:44.034Z,8.48
2019-05-17T05:00:13.913Z,8.65
2019-05-17T05:02:44.045Z,8.88
2019-05-17T05:05:14.337Z,8.87
2019-05-17T05:07:43.732Z,8.92
2019-05-17T05:10:14.264Z,8.94
2019-05-17T05:12:44.198Z,8.99
2019-05-17T05:15:13.467Z,8.91
2019-05-17T05:17:42.938Z,9.03
2019-05-17T05:20:13.104Z,9.22
2019-05-17T05:22:42.747Z,9.26
2019-05-17T05:25:12.486Z,9.35
2019-05-17T05:27:42.754Z,9.28
2019-05-17T05:30:12.421Z,9.07
2019-05-17T05:32:42.609Z,9.07
2019-05-17T05:35:12.489Z,9.20
2019-05-17T05:37:42.559Z,9.39
2019-05-17T05:40:13.057Z,9.55
2019-05-17T05:42:42.579Z,9.47
2019-05-17T05:45:13.237Z,9.60
2019-05-17T05:47:43.303Z,9.72
2019-05-17T05:50:13.823Z,9.87
2019-05-17T05:52:42.731Z,9.95
2019-05-17T05:55:12.512Z,10.42
2019-05-17T05:57:41.995Z,10.27
2019-05-17T06:00:13.360Z,10.11
2019-05-17T06:02:42.181Z,10.11
2019-05-17T06:05:15.011Z,10.14
2019-05-17T06:07:41.823Z,10.09
2019-05-17T06:10:12.933Z,10.28
2019-05-17T06:12:43.376Z,10.47
2019-05-17T06:15:12.690Z,10.77
2019-05-17T06:17:42.794Z,10.91
2019-05-17T06:20:12.199Z,11.00
2019-05-17T06:22:42.743Z,11.40
2019-05-17T06:25:15.073Z,11.13
2019-05-17T06:27:41.681Z,10.95
2019-05-17T06:30:12.632Z,11.45
2019-05-17T06:32:43.246Z,11.69
2019-05-17T06:35:12.810Z,11.83
2019-05-17T06:37:42.555Z,12.20
2019-05-17T06:40:12.996Z,12.10
2019-05-17T06:42:45.175Z,12.17
2019-05-17T06:45:12.897Z,12.37
2019-05-17T06:47:42.682Z,12.59
2019-05-17T06:50:14.345Z,12.55
2019-05-17T06:52:43.848Z,12.42
2019-05-17T06:55:13.214Z,12.69
2019-05-17T06:57:43.169Z,12.70
2019-05-17T07:00:19.739Z,12.70
2019-05-17T07:02:43.712Z,12.91
2019-05-17T07:05:14.213Z,13.06
2019-05-17T07:07:43.015Z,12.82
2019-05-17T07:10:13.048Z,13.27
2019-05-17T07:12:54.986Z,12.99
2019-05-17T07:15:12.558Z,13.44
2019-05-17T07:17:41.081Z,13.51
2019-05-17T07:20:10.738Z,13.65
2019-05-17T07:22:40.711Z,13.91
2019-05-17T07:25:11.078Z,13.45
2019-05-17T07:27:45.353Z,13.97
2019-05-17T07:30:10.816Z,13.55
2019-05-17T07:32:40.703Z,13.70
2019-05-17T07:35:10.667Z,13.96
2019-05-17T07:37:40.687Z,14.30
2019-05-17T07:40:10.818Z,13.75
2019-05-17T07:42:39.971Z,14.13
2019-05-17T07:45:10.252Z,14.70
2019-05-17T07:47:40.392Z,14.86
2019-05-17T07:50:11.434Z,15.15
2019-05-17T07:52:40.332Z,14.61
2019-05-17T07:55:10.774Z,14.56
2019-05-17T07:57:41.069Z,14.78
2019-05-17T08:00:10.784Z,14.76
2019-05-17T08:02:40.128Z,15.16
2019-05-17T08:05:10.582Z,15.16
2019-05-17T08:07:40.173Z,15.04
2019-05-17T08:10:11.002Z,14.53
2019-05-17T08:12:42.701Z,15.13
2019-05-17T08:15:11.642Z,15.05
2019-05-17T08:17:40.275Z,15.10
2019-05-17T08:20:10.327Z,14.97
2019-05-17T08:22:39.896Z,15.32
2019-05-17T08:25:10.615Z,15.58
2019-05-17T08:27:40.468Z,15.50
2019-05-17T08:30:11.752Z,15.53
2019-05-17T08:32:40.856Z,15.31
2019-05-17T08:35:11.465Z,15.59
2019-05-17T08:37:42.456Z,15.64
2019-05-17T08:40:11.082Z,15.90
2019-05-17T08:42:40.751Z,15.45
2019-05-17T08:45:11.112Z,15.16
2019-05-17T08:47:39.991Z,15.55
2019-05-17T08:50:11.524Z,16.02
2019-05-17T08:52:40.600Z,16.18
2019-05-17T08:55:10.041Z,16.72
2019-05-17T08:57:40.034Z,16.23
2019-05-17T09:00:10.714Z,15.42
2019-05-17T09:02:40.850Z,15.92
2019-05-17T09:05:10.248Z,16.48
2019-05-17T09:07:40.228Z,16.66
2019-05-17T09:10:10.276Z,16.53
2019-05-17T09:12:40.932Z,16.55
2019-05-17T09:15:10.177Z,16.72
2019-05-17T09:17:39.649Z,16.37
2019-05-17T09:20:10.715Z,16.16
2019-05-17T09:22:39.921Z,16.46
2019-05-17T09:25:13.632Z,16.52
2019-05-17T09:27:39.682Z,16.79
2019-05-17T09:30:09.771Z,16.77
2019-05-17T09:32:40.525Z,16.76
2019-05-17T09:35:10.064Z,16.40
2019-05-17T09:37:41.381Z,16.42
2019-05-17T09:40:09.909Z,17.27
2019-05-17T09:42:41.137Z,17.43
2019-05-17T09:45:09.807Z,17.43
2019-05-17T09:47:39.827Z,17.72
2019-05-17T09:50:09.866Z,17.66
2019-05-17T09:52:40.636Z,17.52
2019-05-17T09:55:10.197Z,17.77
2019-05-17T09:57:40.893Z,17.73
2019-05-17T10:00:10.833Z,17.89
2019-05-17T10:02:40.316Z,17.36
2019-05-17T10:05:10.646Z,17.84
2019-05-17T10:07:40.305Z,17.65
2019-05-17T10:10:10.450Z,17.34
2019-05-17T10:12:40.430Z,17.61
2019-05-17T10:15:10.322Z,17.16
2019-05-17T10:17:39.043Z,17.93
2019-05-17T10:20:10.804Z,17.97
2019-05-17T10:22:40.230Z,19.06
2019-05-17T10:25:09.890Z,18.69
2019-05-17T10:27:40.557Z,18.92
2019-05-17T10:30:10.537Z,17.94
2019-05-17T10:32:40.945Z,17.78
2019-05-17T10:35:10.088Z,18.30
2019-05-17T10:37:40.847Z,17.80
2019-05-17T10:40:10.765Z,18.23
2019-05-17T10:42:40.013Z,18.15
2019-05-17T10:45:11.041Z,18.18
2019-05-17T10:47:39.988Z,18.18
2019-05-17T10:50:10.758Z,18.70
2019-05-17T10:52:41.073Z,18.70
2019-05-17T10:55:10.466Z,18.56
2019-05-17T10:57:40.171Z,18.47
2019-05-17T11:00:10.086Z,18.21
2019-05-17T11:02:39.115Z,18.41
2019-05-17T11:05:10.386Z,17.99
2019-05-17T11:07:38.266Z,18.19
2019-05-17T11:10:07.514Z,18.28
2019-05-17T11:12:36.312Z,17.96
2019-05-17T11:15:11.398Z,17.74
2019-05-17T11:17:37.403Z,17.95
2019-05-17T11:20:07.820Z,17.99
2019-05-17T11:22:36.377Z,17.76
2019-05-17T11:25:07.632Z,18.12
2019-05-17T11:27:36.110Z,17.96
2019-05-17T11:30:06.487Z,17.85
2019-05-17T11:32:35.263Z,18.00
2019-05-17T11:35:04.967Z,17.68
2019-05-17T11:37:33.510Z,17.65
2019-05-17T11:40:01.998Z,17.52
2019-05-17T11:42:30.611Z,17.60
2019-05-17T11:44:59.435Z,17.61
2019-05-17T11:47:27.905Z,17.62
2019-05-17T11:49:57.159Z,17.62
2019-05-17T11:52:25.743Z,17.65
2019-05-17T11:54:54.244Z,17.58
2019-05-17T11:57:22.793Z,17.44
2019-05-17T11:59:51.287Z,17.44
2019-05-17T12:02:21.621Z,17.41
2019-05-17T12:04:50.566Z,17.67
2019-05-17T12:07:19.205Z,18.39
2019-05-17T12:09:47.705Z,18.60
2019-05-17T12:12:16.920Z,18.72
2019-05-17T12:14:45.465Z,19.68
2019-05-17T12:17:13.989Z,19.93
2019-05-17T12:19:42.499Z,20.16
2019-05-17T12:22:11.031Z,20.71
2019-05-17T12:24:39.529Z,20.57
2019-05-17T12:27:08.044Z,19.92
2019-05-17T12:29:36.633Z,19.92
2019-05-17T12:32:05.183Z,20.06
2019-05-17T12:34:33.693Z,20.79
2019-05-17T12:37:02.628Z,22.17
2019-05-17T12:39:31.109Z,21.46
2019-05-17T12:42:00.111Z,20.54
2019-05-17T12:44:28.740Z,21.37
2019-05-17T12:46:57.300Z,20.97
2019-05-17T12:49:25.906Z,21.04
2019-05-17T12:51:57.383Z,20.77
2019-05-17T12:54:25.852Z,20.34
2019-05-17T12:56:54.477Z,19.98
2019-05-17T12:59:22.972Z,20.03
2019-05-17T13:01:51.523Z,20.15
2019-05-17T13:04:20.375Z,19.59
2019-05-17T13:06:49.266Z,19.83
2019-05-17T13:09:17.721Z,20.11
2019-05-17T13:11:46.220Z,20.61
2019-05-17T13:14:15.119Z,21.50
2019-05-17T13:16:43.626Z,21.19
2019-05-17T13:19:12.146Z,20.70
2019-05-17T13:21:40.608Z,20.64
2019-05-17T13:24:09.071Z,20.63
2019-05-17T13:26:38.712Z,20.52
2019-05-17T13:29:07.203Z,20.02
2019-05-17T13:31:35.716Z,20.34
2019-05-17T13:34:04.498Z,20.73
2019-05-17T13:36:32.961Z,21.26
2019-05-17T13:39:01.434Z,21.11
2019-05-17T13:41:29.965Z,21.01
2019-05-17T13:43:58.434Z,21.01
2019-05-17T13:46:33.330Z,20.52
2019-05-17T13:48:57.846Z,20.71
2019-05-17T13:51:26.340Z,20.75
2019-05-17T13:53:54.788Z,21.88
2019-05-17T13:56:23.274Z,21.85
2019-05-17T13:58:51.759Z,23.46
2019-05-17T14:01:20.330Z,24.07
2019-05-17T14:03:48.800Z,24.77
2019-05-17T14:06:18.462Z,26.30
2019-05-17T14:08:46.990Z,22.90
2019-05-17T14:11:15.881Z,22.22
2019-05-17T14:13:44.346Z,23.05
2019-05-17T14:16:12.831Z,21.26
2019-05-17T14:18:41.286Z,25.83
2019-05-17T14:21:09.781Z,27.04
2019-05-17T14:23:38.209Z,27.43
2019-05-17T14:26:06.758Z,27.81
2019-05-17T14:28:35.199Z,27.23
2019-05-17T14:31:03.728Z,26.81
2019-05-17T14:33:32.196Z,28.54
2019-05-17T14:36:00.743Z,27.24
2019-05-17T14:38:30.710Z,29.16
2019-05-17T14:41:08.527Z,29.28
2019-05-17T14:43:31.666Z,26.52
2019-05-17T14:45:59.641Z,24.76
2019-05-17T14:48:28.112Z,25.84
2019-05-17T14:50:56.627Z,24.66
2019-05-17T14:53:25.073Z,25.58
2019-05-17T14:55:53.576Z,23.96
2019-05-17T14:58:22.018Z,23.31
2019-05-17T15:00:50.863Z,22.50
2019-05-17T15:03:19.329Z,22.13
2019-05-17T15:05:47.840Z,22.05
2019-05-17T15:08:16.479Z,21.80
2019-05-17T15:10:45.008Z,21.78
2019-05-17T15:13:13.487Z,21.24
2019-05-17T15:15:42.020Z,20.96
2019-05-17T15:18:10.497Z,21.14
2019-05-17T15:20:38.997Z,21.00
2019-05-17T15:23:07.483Z,20.77
2019-05-17T15:25:36.379Z,20.26
2019-05-17T15:28:04.849Z,20.63
2019-05-17T15:30:33.368Z,20.56
2019-05-17T15:33:02.098Z,20.68
2019-05-17T15:35:30.894Z,20.61
2019-05-17T15:37:59.369Z,20.37
2019-05-17T15:40:27.852Z,20.87
2019-05-17T15:42:56.645Z,21.91
2019-05-17T15:45:25.118Z,21.88
2019-05-17T15:47:53.600Z,21.81
2019-05-17T15:50:22.144Z,21.06
2019-05-17T15:52:50.653Z,20.92
2019-05-17T15:55:19.155Z,20.35
2019-05-17T15:57:47.650Z,19.93
2019-05-17T16:00:16.561Z,19.72
2019-05-17T16:02:46.063Z,19.65
2019-05-17T16:05:17.327Z,19.38
2019-05-17T16:07:47.533Z,19.33
2019-05-17T16:10:16.133Z,19.39
2019-05-17T16:13:00.969Z,19.50
2019-05-17T16:15:14.839Z,19.23
2019-05-17T16:17:43.680Z,19.41
2019-05-17T16:20:16.676Z,19.01
2019-05-17T16:22:43.623Z,19.07
2019-05-17T16:25:12.435Z,19.20
2019-05-17T16:27:40.963Z,19.25
2019-05-17T16:30:09.714Z,19.03
2019-05-17T16:32:38.225Z,18.97
2019-05-17T16:35:06.973Z,19.00
2019-05-17T16:37:35.540Z,18.87
2019-05-17T16:40:05.405Z,18.86
2019-05-17T16:42:34.004Z,18.89
2019-05-17T16:45:02.839Z,18.88
2019-05-17T16:47:31.355Z,18.78
2019-05-17T16:49:59.815Z,18.83
2019-05-17T16:52:28.349Z,18.81
2019-05-17T16:54:56.795Z,18.73
2019-05-17T16:57:25.391Z,18.77
2019-05-17T16:59:53.989Z,18.70
2019-05-17T17:02:22.993Z,18.71
2019-05-17T17:04:51.456Z,18.72
2019-05-17T17:07:19.996Z,18.69
2019-05-17T17:09:48.445Z,18.54
2019-05-17T17:12:17.345Z,18.47
2019-05-17T17:14:46.149Z,18.28
2019-05-17T17:17:14.796Z,18.14
2019-05-17T17:19:43.417Z,18.16
2019-05-17T17:22:12.127Z,18.16
2019-05-17T17:24:40.660Z,18.00
2019-05-17T17:27:09.234Z,18.06
2019-05-17T17:29:37.715Z,18.01
2019-05-17T17:32:19.429Z,17.77
2019-05-17T17:34:36.458Z,17.85
2019-05-17T17:37:04.974Z,17.93
2019-05-17T17:39:33.827Z,17.93
2019-05-17T17:42:02.477Z,17.91
2019-05-17T17:44:31.286Z,17.87
2019-05-17T17:46:59.749Z,17.76
2019-05-17T17:49:28.221Z,17.65
2019-05-17T17:51:56.704Z,17.64
2019-05-17T17:54:25.181Z,17.56
2019-05-17T17:56:53.678Z,17.56
2019-05-17T17:59:22.149Z,17.52
2019-05-17T18:01:50.841Z,17.54
2019-05-17T18:04:19.309Z,17.38
2019-05-17T18:06:47.841Z,17.38
2019-05-17T18:09:16.343Z,17.22
2019-05-17T18:11:45.394Z,17.09
2019-05-17T18:14:14.158Z,17.11
2019-05-17T18:16:42.841Z,17.02
2019-05-17T18:19:11.310Z,16.89
2019-05-17T18:21:39.818Z,16.92
2019-05-17T18:24:08.784Z,16.81
2019-05-17T18:26:37.617Z,16.72
2019-05-17T18:29:08.080Z,16.58
2019-05-17T18:31:36.394Z,16.52
2019-05-17T18:34:04.872Z,16.42
2019-05-17T18:36:33.400Z,16.33
2019-05-17T18:39:02.657Z,16.26
2019-05-17T18:41:33.997Z,16.24
2019-05-17T18:44:02.759Z,16.24
2019-05-17T18:46:31.537Z,16.16
2019-05-17T18:49:00.207Z,16.15
2019-05-17T18:51:28.872Z,16.13
2019-05-17T18:53:57.847Z,16.26
2019-05-17T18:56:26.369Z,16.12
2019-05-17T18:58:54.911Z,16.21
2019-05-17T19:01:23.799Z,16.16
2019-05-17T19:03:52.278Z,16.11
2019-05-17T19:06:21.194Z,16.08
2019-05-17T19:08:49.966Z,15.97
2019-05-17T19:11:18.487Z,16.00
2019-05-17T19:13:46.978Z,16.00
2019-05-17T19:16:15.540Z,16.10
2019-05-17T19:18:44.157Z,16.03
2019-05-17T19:21:12.696Z,16.01
2019-05-17T19:23:41.272Z,15.92
2019-05-17T19:26:09.882Z,15.92
2019-05-17T19:28:38.352Z,15.92
2019-05-17T19:31:06.860Z,15.84
2019-05-17T19:33:35.715Z,15.65
2019-05-17T19:36:04.275Z,15.70
2019-05-17T19:38:33.076Z,15.63
2019-05-17T19:41:02.120Z,15.59
2019-05-17T19:43:30.596Z,15.61
2019-05-17T19:45:59.297Z,15.49
2019-05-17T19:48:27.777Z,15.52
2019-05-17T19:50:58.003Z,15.59
2019-05-17T19:53:26.551Z,15.58
2019-05-17T19:55:55.441Z,15.74
2019-05-17T19:58:23.911Z,15.70
2019-05-17T20:00:52.428Z,15.71
2019-05-17T20:03:22.294Z,15.75
2019-05-17T20:05:50.823Z,15.68
2019-05-17T20:08:19.282Z,15.68
2019-05-17T20:10:51.614Z,15.70
2019-05-17T20:13:18.885Z,15.64
2019-05-17T20:15:47.579Z,15.53
2019-05-17T20:18:16.337Z,15.57
2019-05-17T20:20:44.889Z,15.54
2019-05-17T20:23:13.361Z,15.43
2019-05-17T20:25:41.910Z,15.37
2019-05-17T20:28:10.664Z,15.20
2019-05-17T20:30:39.196Z,15.20
2019-05-17T20:33:08.063Z,15.18
2019-05-17T20:35:37.878Z,15.11
2019-05-17T20:38:06.354Z,15.04
2019-05-17T20:40:34.898Z,15.08
2019-05-17T20:43:03.356Z,15.04
2019-05-17T20:45:33.688Z,15.05
2019-05-17T20:48:02.288Z,15.11
2019-05-17T20:50:30.816Z,15.02
2019-05-17T20:52:59.302Z,15.03
2019-05-17T20:55:27.984Z,15.00
2019-05-17T20:57:56.450Z,14.94
2019-05-17T21:00:25.035Z,14.96
2019-05-17T21:02:53.682Z,14.97
2019-05-17T21:05:22.213Z,14.99
2019-05-17T21:07:50.697Z,14.98
2019-05-17T21:10:19.813Z,15.00
2019-05-17T21:12:48.670Z,14.98
2019-05-17T21:15:17.801Z,14.98
2019-05-17T21:17:46.345Z,14.96
2019-05-17T21:20:15.586Z,14.92
2019-05-17T21:22:44.149Z,14.92
2019-05-17T21:25:12.993Z,14.98
2019-05-17T21:27:41.516Z,15.00
2019-05-17T21:30:10.166Z,15.01
2019-05-17T21:32:39.111Z,15.02
2019-05-17T21:35:08.136Z,14.99
2019-05-17T21:37:36.641Z,14.99
2019-05-17T21:40:09.512Z,14.94
2019-05-17T21:42:38.032Z,14.83
2019-05-17T21:45:07.456Z,14.90
2019-05-17T21:47:35.998Z,14.84
2019-05-17T21:50:04.689Z,14.83
2019-05-17T21:52:33.557Z,14.76
2019-05-17T21:55:02.088Z,14.74
2019-05-17T21:57:30.671Z,14.67
2019-05-17T21:59:59.194Z,14.60
2019-05-17T22:02:27.772Z,14.64
2019-05-17T22:04:56.253Z,14.66
2019-05-17T22:07:24.764Z,14.66
2019-05-17T22:09:53.218Z,14.56
2019-05-17T22:12:21.761Z,14.51
2019-05-17T22:14:50.624Z,14.39
2019-05-17T22:17:19.131Z,14.37
2019-05-17T22:19:47.597Z,14.36
2019-05-17T22:22:16.333Z,14.32
2019-05-17T22:24:44.794Z,14.22
2019-05-17T22:27:13.300Z,14.20
2019-05-17T22:29:41.850Z,14.09
2019-05-17T22:32:10.405Z,14.05
2019-05-17T22:34:38.853Z,14.03
2019-05-17T22:37:07.393Z,13.97
2019-05-17T22:39:35.917Z,13.97
2019-05-17T22:42:04.438Z,13.91
2019-05-17T22:44:32.913Z,13.84
2019-05-17T22:47:01.414Z,13.89
2019-05-17T22:49:29.905Z,13.86
2019-05-17T22:51:58.383Z,13.77
2019-05-17T22:54:27.162Z,13.78
2019-05-17T22:56:56.014Z,13.67
2019-05-17T22:59:24.566Z,13.69
2019-05-17T23:01:53.092Z,13.71
2019-05-17T23:04:21.607Z,13.56
2019-05-17T23:06:50.158Z,13.55
2019-05-17T23:09:19.698Z,13.47
2019-05-17T23:11:48.218Z,13.47
2019-05-17T23:14:16.801Z,13.51
2019-05-17T23:16:51.609Z,13.43
2019-05-17T23:19:15.528Z,13.48
2019-05-17T23:21:44.179Z,13.31
2019-05-17T23:24:12.659Z,13.32
2019-05-17T23:26:41.232Z,13.30
2019-05-17T23:29:09.751Z,13.26
2019-05-17T23:31:38.273Z,13.13
2019-05-17T23:34:06.777Z,13.11
2019-05-17T23:36:35.280Z,13.18
2019-05-17T23:39:04.904Z,13.11
2019-05-17T23:41:33.361Z,13.03
2019-05-17T23:44:01.961Z,13.16
2019-05-17T23:46:30.494Z,13.17
2019-05-17T23:48:59.023Z,13.08
2019-05-17T23:51:27.511Z,13.06
2019-05-17T23:53:56.131Z,13.03
2019-05-17T23:56:25.011Z,13.04
2019-05-17T23:58:53.911Z,13.01
